sensor_id;sensor_type;location;lat;lon;timestamp;temperature;humidity
4556;DHT22;2290;48.674;9.018;2024-01-30T00:02:13;4.00;99.90
4556;DHT22;2290;48.674;9.018;2024-01-30T00:04:38;4.00;99.90
4556;DHT22;2290;48.674;9.018;2024-01-30T00:07:05;4.10;99.90
4556;DHT22;2290;48.674;9.018;2024-01-30T00:09:31;4.10;99.90
4556;DHT22;2290;48.674;9.018;2024-01-30T00:11:56;4.10;99.90
4556;DHT22;2290;48.674;9.018;2024-01-30T00:14:22;4.20;99.90
4556;DHT22;2290;48.674;9.018;2024-01-30T00:16:48;4.20;99.90
4556;DHT22;2290;48.674;9.018;2024-01-30T00:19:14;4.30;99.90
4556;DHT22;2290;48.674;9.018;2024-01-30T00:21:39;4.40;99.90
4556;DHT22;2290;48.674;9.018;2024-01-30T00:24:07;4.40;99.90
4556;DHT22;2290;48.674;9.018;2024-01-30T00:26:33;4.40;99.90
4556;DHT22;2290;48.674;9.018;2024-01-30T00:28:59;4.40;99.90
4556;DHT22;2290;48.674;9.018;2024-01-30T00:31:26;4.40;99.90
4556;DHT22;2290;48.674;9.018;2024-01-30T00:33:52;4.40;99.90
4556;DHT22;2290;48.674;9.018;2024-01-30T00:36:18;4.40;99.90
4556;DHT22;2290;48.674;9.018;2024-01-30T00:38:44;4.30;99.90
4556;DHT22;2290;48.674;9.018;2024-01-30T00:41:09;4.40;99.90
4556;DHT22;2290;48.674;9.018;2024-01-30T00:43:36;4.30;99.90
4556;DHT22;2290;48.674;9.018;2024-01-30T00:46:01;4.20;99.90
4556;DHT22;2290;48.674;9.018;2024-01-30T00:48:27;4.40;99.90
4556;DHT22;2290;48.674;9.018;2024-01-30T00:50:52;4.40;99.90
4556;DHT22;2290;48.674;9.018;2024-01-30T00:53:18;4.30;99.90
4556;DHT22;2290;48.674;9.018;2024-01-30T00:55:43;4.40;99.90
4556;DHT22;2290;48.674;9.018;2024-01-30T00:58:09;4.40;99.90
4556;DHT22;2290;48.674;9.018;2024-01-30T01:00:35;4.40;99.90
4556;DHT22;2290;48.674;9.018;2024-01-30T01:03:01;4.50;99.90
4556;DHT22;2290;48.674;9.018;2024-01-30T01:05:26;4.50;99.90
4556;DHT22;2290;48.674;9.018;2024-01-30T01:07:52;4.50;99.90
4556;DHT22;2290;48.674;9.018;2024-01-30T01:10:18;4.50;99.90
4556;DHT22;2290;48.674;9.018;2024-01-30T01:12:44;4.60;99.90
4556;DHT22;2290;48.674;9.018;2024-01-30T01:15:10;4.60;99.90
4556;DHT22;2290;48.674;9.018;2024-01-30T01:17:39;4.60;99.90
4556;DHT22;2290;48.674;9.018;2024-01-30T01:20:07;4.60;99.90
4556;DHT22;2290;48.674;9.018;2024-01-30T01:22:34;4.70;99.90
4556;DHT22;2290;48.674;9.018;2024-01-30T01:25:00;4.70;99.90
4556;DHT22;2290;48.674;9.018;2024-01-30T01:27:25;4.60;99.90
4556;DHT22;2290;48.674;9.018;2024-01-30T01:29:52;4.60;99.90
4556;DHT22;2290;48.674;9.018;2024-01-30T01:32:19;4.70;99.90
4556;DHT22;2290;48.674;9.018;2024-01-30T01:34:44;4.70;99.90
4556;DHT22;2290;48.674;9.018;2024-01-30T01:37:10;4.60;99.90
4556;DHT22;2290;48.674;9.018;2024-01-30T01:39:36;4.70;99.90
4556;DHT22;2290;48.674;9.018;2024-01-30T01:42:01;4.70;99.90
4556;DHT22;2290;48.674;9.018;2024-01-30T01:44:27;4.60;99.90
4556;DHT22;2290;48.674;9.018;2024-01-30T01:46:55;4.60;99.90
4556;DHT22;2290;48.674;9.018;2024-01-30T01:49:26;4.60;99.90
4556;DHT22;2290;48.674;9.018;2024-01-30T01:51:54;4.70;99.90
4556;DHT22;2290;48.674;9.018;2024-01-30T01:54:21;4.70;99.90
4556;DHT22;2290;48.674;9.018;2024-01-30T01:56:47;4.70;99.90
4556;DHT22;2290;48.674;9.018;2024-01-30T01:59:12;4.60;99.90
4556;DHT22;2290;48.674;9.018;2024-01-30T02:01:39;4.50;99.90
4556;DHT22;2290;48.674;9.018;2024-01-30T02:04:09;4.50;99.90
4556;DHT22;2290;48.674;9.018;2024-01-30T02:06:35;4.40;99.90
4556;DHT22;2290;48.674;9.018;2024-01-30T02:09:00;4.50;99.90
4556;DHT22;2290;48.674;9.018;2024-01-30T02:11:27;4.40;99.90
4556;DHT22;2290;48.674;9.018;2024-01-30T02:13:53;4.40;99.90
4556;DHT22;2290;48.674;9.018;2024-01-30T02:16:20;4.40;99.90
4556;DHT22;2290;48.674;9.018;2024-01-30T02:18:47;4.30;99.90
4556;DHT22;2290;48.674;9.018;2024-01-30T02:21:15;4.30;99.90
4556;DHT22;2290;48.674;9.018;2024-01-30T02:23:41;4.40;99.90
4556;DHT22;2290;48.674;9.018;2024-01-30T02:26:08;4.30;99.90
4556;DHT22;2290;48.674;9.018;2024-01-30T02:28:33;4.30;99.90
4556;DHT22;2290;48.674;9.018;2024-01-30T02:30:59;4.20;99.90
4556;DHT22;2290;48.674;9.018;2024-01-30T02:33:24;4.20;99.90
4556;DHT22;2290;48.674;9.018;2024-01-30T02:35:50;4.10;99.90
4556;DHT22;2290;48.674;9.018;2024-01-30T02:38:16;4.10;99.90
4556;DHT22;2290;48.674;9.018;2024-01-30T02:40:42;4.00;99.90
4556;DHT22;2290;48.674;9.018;2024-01-30T02:43:08;4.00;99.90
4556;DHT22;2290;48.674;9.018;2024-01-30T02:45:33;4.00;99.90
4556;DHT22;2290;48.674;9.018;2024-01-30T02:47:59;4.00;99.90
4556;DHT22;2290;48.674;9.018;2024-01-30T02:50:25;4.00;99.90
4556;DHT22;2290;48.674;9.018;2024-01-30T02:52:50;4.00;99.90
4556;DHT22;2290;48.674;9.018;2024-01-30T02:55:16;4.00;99.90
4556;DHT22;2290;48.674;9.018;2024-01-30T02:57:45;4.00;99.90
4556;DHT22;2290;48.674;9.018;2024-01-30T03:00:11;4.00;99.90
4556;DHT22;2290;48.674;9.018;2024-01-30T03:02:37;3.90;99.90
4556;DHT22;2290;48.674;9.018;2024-01-30T03:05:04;3.90;99.90
4556;DHT22;2290;48.674;9.018;2024-01-30T03:07:30;3.90;99.90
4556;DHT22;2290;48.674;9.018;2024-01-30T03:09:56;4.00;99.90
4556;DHT22;2290;48.674;9.018;2024-01-30T03:12:22;4.00;99.90
4556;DHT22;2290;48.674;9.018;2024-01-30T03:14:48;3.90;99.90
4556;DHT22;2290;48.674;9.018;2024-01-30T03:17:14;3.90;99.90
4556;DHT22;2290;48.674;9.018;2024-01-30T03:19:40;3.80;99.90
4556;DHT22;2290;48.674;9.018;2024-01-30T03:22:06;3.80;99.90
4556;DHT22;2290;48.674;9.018;2024-01-30T03:24:31;3.80;99.90
4556;DHT22;2290;48.674;9.018;2024-01-30T03:26:57;3.70;99.90
4556;DHT22;2290;48.674;9.018;2024-01-30T03:29:22;3.60;99.90
4556;DHT22;2290;48.674;9.018;2024-01-30T03:31:48;3.60;99.90
4556;DHT22;2290;48.674;9.018;2024-01-30T03:34:13;3.50;99.90
4556;DHT22;2290;48.674;9.018;2024-01-30T03:36:39;3.60;99.90
4556;DHT22;2290;48.674;9.018;2024-01-30T03:39:05;3.60;99.90
4556;DHT22;2290;48.674;9.018;2024-01-30T03:41:31;3.60;99.90
4556;DHT22;2290;48.674;9.018;2024-01-30T03:43:57;3.60;99.90
4556;DHT22;2290;48.674;9.018;2024-01-30T03:46:22;3.70;99.90
4556;DHT22;2290;48.674;9.018;2024-01-30T03:48:48;3.60;99.90
4556;DHT22;2290;48.674;9.018;2024-01-30T03:51:14;3.60;99.90
4556;DHT22;2290;48.674;9.018;2024-01-30T03:53:41;3.60;99.90
4556;DHT22;2290;48.674;9.018;2024-01-30T03:56:07;3.50;99.90
4556;DHT22;2290;48.674;9.018;2024-01-30T03:58:33;3.50;99.90
4556;DHT22;2290;48.674;9.018;2024-01-30T04:00:59;3.50;99.90
4556;DHT22;2290;48.674;9.018;2024-01-30T04:03:24;3.40;99.90
4556;DHT22;2290;48.674;9.018;2024-01-30T04:05:52;3.40;99.90
4556;DHT22;2290;48.674;9.018;2024-01-30T04:08:17;3.40;99.90
4556;DHT22;2290;48.674;9.018;2024-01-30T04:10:43;3.50;99.90
4556;DHT22;2290;48.674;9.018;2024-01-30T04:13:08;3.50;99.90
4556;DHT22;2290;48.674;9.018;2024-01-30T04:15:35;3.50;99.90
4556;DHT22;2290;48.674;9.018;2024-01-30T04:18:01;3.50;99.90
4556;DHT22;2290;48.674;9.018;2024-01-30T04:20:27;3.50;99.90
4556;DHT22;2290;48.674;9.018;2024-01-30T04:22:53;3.50;99.90
4556;DHT22;2290;48.674;9.018;2024-01-30T04:25:19;3.50;99.90
4556;DHT22;2290;48.674;9.018;2024-01-30T04:27:44;3.40;99.90
4556;DHT22;2290;48.674;9.018;2024-01-30T04:30:10;3.40;99.90
4556;DHT22;2290;48.674;9.018;2024-01-30T04:32:36;3.30;99.90
4556;DHT22;2290;48.674;9.018;2024-01-30T04:35:02;3.30;99.90
4556;DHT22;2290;48.674;9.018;2024-01-30T04:37:28;3.30;99.90
4556;DHT22;2290;48.674;9.018;2024-01-30T04:39:56;3.30;99.90
4556;DHT22;2290;48.674;9.018;2024-01-30T04:42:21;3.30;99.90
4556;DHT22;2290;48.674;9.018;2024-01-30T04:44:48;3.40;99.90
4556;DHT22;2290;48.674;9.018;2024-01-30T04:47:15;3.40;99.90
4556;DHT22;2290;48.674;9.018;2024-01-30T04:49:42;3.40;99.90
4556;DHT22;2290;48.674;9.018;2024-01-30T04:52:09;3.30;99.90
4556;DHT22;2290;48.674;9.018;2024-01-30T04:54:35;3.30;99.90
4556;DHT22;2290;48.674;9.018;2024-01-30T04:57:02;3.30;99.90
4556;DHT22;2290;48.674;9.018;2024-01-30T04:59:29;3.40;99.90
4556;DHT22;2290;48.674;9.018;2024-01-30T05:01:54;3.40;99.90
4556;DHT22;2290;48.674;9.018;2024-01-30T05:04:20;3.40;99.90
4556;DHT22;2290;48.674;9.018;2024-01-30T05:06:45;3.30;99.90
4556;DHT22;2290;48.674;9.018;2024-01-30T05:09:11;3.30;99.90
4556;DHT22;2290;48.674;9.018;2024-01-30T05:11:39;3.20;99.90
4556;DHT22;2290;48.674;9.018;2024-01-30T05:14:05;3.10;99.90
4556;DHT22;2290;48.674;9.018;2024-01-30T05:16:31;3.10;99.90
4556;DHT22;2290;48.674;9.018;2024-01-30T05:18:57;3.10;99.90
4556;DHT22;2290;48.674;9.018;2024-01-30T05:21:25;3.10;99.90
4556;DHT22;2290;48.674;9.018;2024-01-30T05:23:52;3.00;99.90
4556;DHT22;2290;48.674;9.018;2024-01-30T05:26:17;3.00;99.90
4556;DHT22;2290;48.674;9.018;2024-01-30T05:28:43;3.00;99.90
4556;DHT22;2290;48.674;9.018;2024-01-30T05:31:11;2.90;99.90
4556;DHT22;2290;48.674;9.018;2024-01-30T05:33:37;3.00;99.90
4556;DHT22;2290;48.674;9.018;2024-01-30T05:36:03;3.00;99.90
4556;DHT22;2290;48.674;9.018;2024-01-30T05:38:31;2.90;99.90
4556;DHT22;2290;48.674;9.018;2024-01-30T05:40:57;2.90;99.90
4556;DHT22;2290;48.674;9.018;2024-01-30T05:43:27;2.90;99.90
4556;DHT22;2290;48.674;9.018;2024-01-30T05:45:52;3.00;99.90
4556;DHT22;2290;48.674;9.018;2024-01-30T05:48:18;3.00;99.90
4556;DHT22;2290;48.674;9.018;2024-01-30T05:50:44;3.00;99.90
4556;DHT22;2290;48.674;9.018;2024-01-30T05:53:10;3.00;99.90
4556;DHT22;2290;48.674;9.018;2024-01-30T05:55:37;3.10;99.90
4556;DHT22;2290;48.674;9.018;2024-01-30T05:58:03;3.10;99.90
4556;DHT22;2290;48.674;9.018;2024-01-30T06:00:29;3.10;99.90
4556;DHT22;2290;48.674;9.018;2024-01-30T06:02:55;3.00;99.90
4556;DHT22;2290;48.674;9.018;2024-01-30T06:05:20;2.90;99.90
4556;DHT22;2290;48.674;9.018;2024-01-30T06:07:46;2.90;99.90
4556;DHT22;2290;48.674;9.018;2024-01-30T06:10:13;2.80;99.90
4556;DHT22;2290;48.674;9.018;2024-01-30T06:12:38;2.80;99.90
4556;DHT22;2290;48.674;9.018;2024-01-30T06:15:04;2.80;99.90
4556;DHT22;2290;48.674;9.018;2024-01-30T06:17:30;2.80;99.90
4556;DHT22;2290;48.674;9.018;2024-01-30T06:19:56;2.80;99.90
4556;DHT22;2290;48.674;9.018;2024-01-30T06:22:21;2.60;99.90
4556;DHT22;2290;48.674;9.018;2024-01-30T06:24:47;2.70;99.90
4556;DHT22;2290;48.674;9.018;2024-01-30T06:27:15;2.60;99.90
4556;DHT22;2290;48.674;9.018;2024-01-30T06:29:42;2.70;99.90
4556;DHT22;2290;48.674;9.018;2024-01-30T06:32:08;2.80;99.90
4556;DHT22;2290;48.674;9.018;2024-01-30T06:34:34;2.80;99.90
4556;DHT22;2290;48.674;9.018;2024-01-30T06:36:59;2.70;99.90
4556;DHT22;2290;48.674;9.018;2024-01-30T06:39:26;2.70;99.90
4556;DHT22;2290;48.674;9.018;2024-01-30T06:41:52;2.70;99.90
4556;DHT22;2290;48.674;9.018;2024-01-30T06:44:17;2.80;99.90
4556;DHT22;2290;48.674;9.018;2024-01-30T06:46:43;2.80;99.90
4556;DHT22;2290;48.674;9.018;2024-01-30T06:49:08;2.80;99.90
4556;DHT22;2290;48.674;9.018;2024-01-30T06:51:34;2.80;99.90
4556;DHT22;2290;48.674;9.018;2024-01-30T06:54:00;2.80;99.90
4556;DHT22;2290;48.674;9.018;2024-01-30T06:56:25;2.80;99.90
4556;DHT22;2290;48.674;9.018;2024-01-30T06:58:51;2.80;99.90
4556;DHT22;2290;48.674;9.018;2024-01-30T07:01:16;2.80;99.90
4556;DHT22;2290;48.674;9.018;2024-01-30T07:03:44;2.80;99.90
4556;DHT22;2290;48.674;9.018;2024-01-30T07:06:09;2.80;99.90
4556;DHT22;2290;48.674;9.018;2024-01-30T07:08:38;2.80;99.90
4556;DHT22;2290;48.674;9.018;2024-01-30T07:11:05;2.90;99.90
4556;DHT22;2290;48.674;9.018;2024-01-30T07:13:31;2.90;99.90
4556;DHT22;2290;48.674;9.018;2024-01-30T07:15:57;2.90;99.90
4556;DHT22;2290;48.674;9.018;2024-01-30T07:18:22;2.90;99.90
4556;DHT22;2290;48.674;9.018;2024-01-30T07:20:48;2.90;99.90
4556;DHT22;2290;48.674;9.018;2024-01-30T07:23:16;2.90;99.90
4556;DHT22;2290;48.674;9.018;2024-01-30T07:25:43;3.00;99.90
4556;DHT22;2290;48.674;9.018;2024-01-30T07:28:10;3.10;99.90
4556;DHT22;2290;48.674;9.018;2024-01-30T07:30:36;3.10;99.90
4556;DHT22;2290;48.674;9.018;2024-01-30T07:33:02;3.10;99.90
4556;DHT22;2290;48.674;9.018;2024-01-30T07:35:27;3.10;99.90
4556;DHT22;2290;48.674;9.018;2024-01-30T07:37:53;3.10;99.90
4556;DHT22;2290;48.674;9.018;2024-01-30T07:40:22;3.10;99.90
4556;DHT22;2290;48.674;9.018;2024-01-30T07:42:48;3.10;99.90
4556;DHT22;2290;48.674;9.018;2024-01-30T07:45:14;3.10;99.90
4556;DHT22;2290;48.674;9.018;2024-01-30T07:47:41;3.10;99.90
4556;DHT22;2290;48.674;9.018;2024-01-30T07:50:08;3.20;99.90
4556;DHT22;2290;48.674;9.018;2024-01-30T07:52:34;3.20;99.90
4556;DHT22;2290;48.674;9.018;2024-01-30T07:55:00;3.20;99.90
4556;DHT22;2290;48.674;9.018;2024-01-30T07:57:26;3.30;99.90
4556;DHT22;2290;48.674;9.018;2024-01-30T07:59:52;3.40;99.90
4556;DHT22;2290;48.674;9.018;2024-01-30T08:02:18;3.40;99.90
4556;DHT22;2290;48.674;9.018;2024-01-30T08:04:43;3.30;99.90
4556;DHT22;2290;48.674;9.018;2024-01-30T08:07:15;3.40;99.90
4556;DHT22;2290;48.674;9.018;2024-01-30T08:09:41;3.60;99.90
4556;DHT22;2290;48.674;9.018;2024-01-30T08:12:06;3.70;99.90
4556;DHT22;2290;48.674;9.018;2024-01-30T08:14:32;3.80;99.90
4556;DHT22;2290;48.674;9.018;2024-01-30T08:16:58;4.00;99.90
4556;DHT22;2290;48.674;9.018;2024-01-30T08:19:23;4.10;99.90
4556;DHT22;2290;48.674;9.018;2024-01-30T08:21:49;4.20;99.90
4556;DHT22;2290;48.674;9.018;2024-01-30T08:24:15;4.30;99.90
4556;DHT22;2290;48.674;9.018;2024-01-30T08:26:41;4.40;99.90
4556;DHT22;2290;48.674;9.018;2024-01-30T08:29:08;4.50;99.90
4556;DHT22;2290;48.674;9.018;2024-01-30T08:34:38;4.80;99.90
4556;DHT22;2290;48.674;9.018;2024-01-30T08:37:48;5.00;99.90
4556;DHT22;2290;48.674;9.018;2024-01-30T08:40:57;5.20;99.90
4556;DHT22;2290;48.674;9.018;2024-01-30T08:43:29;5.20;99.90
4556;DHT22;2290;48.674;9.018;2024-01-30T08:45:55;5.30;99.90
4556;DHT22;2290;48.674;9.018;2024-01-30T08:48:22;5.40;99.90
4556;DHT22;2290;48.674;9.018;2024-01-30T08:50:48;5.50;99.90
4556;DHT22;2290;48.674;9.018;2024-01-30T08:53:14;5.60;99.90
4556;DHT22;2290;48.674;9.018;2024-01-30T08:55:41;5.70;99.90
4556;DHT22;2290;48.674;9.018;2024-01-30T08:58:07;5.80;99.90
4556;DHT22;2290;48.674;9.018;2024-01-30T09:00:33;6.00;99.90
4556;DHT22;2290;48.674;9.018;2024-01-30T09:02:58;6.10;99.90
4556;DHT22;2290;48.674;9.018;2024-01-30T09:05:24;6.20;99.90
4556;DHT22;2290;48.674;9.018;2024-01-30T09:07:49;6.40;99.90
4556;DHT22;2290;48.674;9.018;2024-01-30T09:10:15;6.50;99.90
4556;DHT22;2290;48.674;9.018;2024-01-30T09:12:41;6.60;99.90
4556;DHT22;2290;48.674;9.018;2024-01-30T09:15:07;6.80;99.90
4556;DHT22;2290;48.674;9.018;2024-01-30T09:17:33;6.90;99.90
4556;DHT22;2290;48.674;9.018;2024-01-30T09:19:59;7.10;99.90
4556;DHT22;2290;48.674;9.018;2024-01-30T09:22:25;7.20;99.90
4556;DHT22;2290;48.674;9.018;2024-01-30T09:24:50;7.30;99.90
4556;DHT22;2290;48.674;9.018;2024-01-30T09:27:16;7.40;99.90
4556;DHT22;2290;48.674;9.018;2024-01-30T09:29:41;7.50;99.90
4556;DHT22;2290;48.674;9.018;2024-01-30T09:32:07;7.50;99.90
4556;DHT22;2290;48.674;9.018;2024-01-30T09:34:35;7.60;99.90
4556;DHT22;2290;48.674;9.018;2024-01-30T09:37:05;7.70;99.90
4556;DHT22;2290;48.674;9.018;2024-01-30T09:39:31;7.70;99.90
4556;DHT22;2290;48.674;9.018;2024-01-30T09:44:43;7.80;99.90
4556;DHT22;2290;48.674;9.018;2024-01-30T09:47:09;7.90;99.90
4556;DHT22;2290;48.674;9.018;2024-01-30T09:49:37;8.00;99.90
4556;DHT22;2290;48.674;9.018;2024-01-30T09:52:03;8.10;99.90
4556;DHT22;2290;48.674;9.018;2024-01-30T09:54:31;8.20;99.90
4556;DHT22;2290;48.674;9.018;2024-01-30T09:57:01;8.20;99.90
4556;DHT22;2290;48.674;9.018;2024-01-30T09:59:28;8.30;99.90
4556;DHT22;2290;48.674;9.018;2024-01-30T10:01:54;8.40;99.90
4556;DHT22;2290;48.674;9.018;2024-01-30T10:04:19;8.40;99.90
4556;DHT22;2290;48.674;9.018;2024-01-30T10:06:47;8.40;99.90
4556;DHT22;2290;48.674;9.018;2024-01-30T10:09:13;8.50;99.90
4556;DHT22;2290;48.674;9.018;2024-01-30T10:11:39;8.60;99.90
4556;DHT22;2290;48.674;9.018;2024-01-30T10:14:05;8.70;99.90
4556;DHT22;2290;48.674;9.018;2024-01-30T10:16:31;8.80;99.90
4556;DHT22;2290;48.674;9.018;2024-01-30T10:18:59;8.90;99.90
4556;DHT22;2290;48.674;9.018;2024-01-30T10:21:24;9.00;99.90
4556;DHT22;2290;48.674;9.018;2024-01-30T10:23:52;9.00;99.90
4556;DHT22;2290;48.674;9.018;2024-01-30T10:26:20;9.10;99.90
4556;DHT22;2290;48.674;9.018;2024-01-30T10:28:47;9.20;99.90
4556;DHT22;2290;48.674;9.018;2024-01-30T10:31:17;9.40;99.90
4556;DHT22;2290;48.674;9.018;2024-01-30T10:33:44;9.30;99.90
4556;DHT22;2290;48.674;9.018;2024-01-30T10:36:13;9.40;99.90
4556;DHT22;2290;48.674;9.018;2024-01-30T10:38:42;9.50;99.90
4556;DHT22;2290;48.674;9.018;2024-01-30T10:41:31;9.60;99.90
4556;DHT22;2290;48.674;9.018;2024-01-30T10:44:08;9.70;99.90
4556;DHT22;2290;48.674;9.018;2024-01-30T10:46:35;9.80;99.90
4556;DHT22;2290;48.674;9.018;2024-01-30T10:49:04;9.90;99.90
4556;DHT22;2290;48.674;9.018;2024-01-30T10:51:31;10.10;99.90
4556;DHT22;2290;48.674;9.018;2024-01-30T10:53:58;10.30;99.90
4556;DHT22;2290;48.674;9.018;2024-01-30T10:56:24;10.40;99.90
4556;DHT22;2290;48.674;9.018;2024-01-30T10:58:51;10.50;99.90
4556;DHT22;2290;48.674;9.018;2024-01-30T11:01:24;10.80;99.90
4556;DHT22;2290;48.674;9.018;2024-01-30T11:03:54;10.80;99.90
4556;DHT22;2290;48.674;9.018;2024-01-30T11:06:24;10.90;99.90
4556;DHT22;2290;48.674;9.018;2024-01-30T11:09:03;11.00;99.90
4556;DHT22;2290;48.674;9.018;2024-01-30T11:11:51;11.00;99.90
4556;DHT22;2290;48.674;9.018;2024-01-30T11:14:23;11.00;99.90
4556;DHT22;2290;48.674;9.018;2024-01-30T11:16:50;11.20;99.90
4556;DHT22;2290;48.674;9.018;2024-01-30T11:19:22;11.20;99.90
4556;DHT22;2290;48.674;9.018;2024-01-30T11:21:50;11.40;99.90
4556;DHT22;2290;48.674;9.018;2024-01-30T11:24:20;11.40;99.90
4556;DHT22;2290;48.674;9.018;2024-01-30T11:27:01;11.40;99.90
4556;DHT22;2290;48.674;9.018;2024-01-30T11:29:29;11.40;99.90
4556;DHT22;2290;48.674;9.018;2024-01-30T11:31:56;11.40;99.90
4556;DHT22;2290;48.674;9.018;2024-01-30T11:34:22;11.40;99.90
4556;DHT22;2290;48.674;9.018;2024-01-30T11:36:52;11.40;99.90
4556;DHT22;2290;48.674;9.018;2024-01-30T11:39:26;11.50;99.90
4556;DHT22;2290;48.674;9.018;2024-01-30T11:41:53;11.60;99.90
4556;DHT22;2290;48.674;9.018;2024-01-30T11:44:20;11.60;99.90
4556;DHT22;2290;48.674;9.018;2024-01-30T11:46:50;11.70;99.90
4556;DHT22;2290;48.674;9.018;2024-01-30T11:49:17;11.70;99.90
4556;DHT22;2290;48.674;9.018;2024-01-30T11:51:45;11.70;99.90
4556;DHT22;2290;48.674;9.018;2024-01-30T11:54:11;11.70;99.90
4556;DHT22;2290;48.674;9.018;2024-01-30T11:56:38;11.70;99.90
4556;DHT22;2290;48.674;9.018;2024-01-30T11:59:04;11.70;99.90
4556;DHT22;2290;48.674;9.018;2024-01-30T12:01:32;11.70;99.90
4556;DHT22;2290;48.674;9.018;2024-01-30T12:03:59;11.70;99.90
4556;DHT22;2290;48.674;9.018;2024-01-30T12:06:24;11.70;99.90
4556;DHT22;2290;48.674;9.018;2024-01-30T12:09:02;11.80;99.90
4556;DHT22;2290;48.674;9.018;2024-01-30T12:11:31;11.80;99.90
4556;DHT22;2290;48.674;9.018;2024-01-30T12:13:57;11.90;99.90
4556;DHT22;2290;48.674;9.018;2024-01-30T12:16:22;11.90;99.90
4556;DHT22;2290;48.674;9.018;2024-01-30T12:18:48;12.00;99.90
4556;DHT22;2290;48.674;9.018;2024-01-30T12:21:17;12.00;99.90
4556;DHT22;2290;48.674;9.018;2024-01-30T12:23:44;12.00;99.90
4556;DHT22;2290;48.674;9.018;2024-01-30T12:26:12;12.10;99.90
4556;DHT22;2290;48.674;9.018;2024-01-30T12:28:48;12.10;99.90
4556;DHT22;2290;48.674;9.018;2024-01-30T12:31:14;12.10;99.90
4556;DHT22;2290;48.674;9.018;2024-01-30T12:33:39;12.10;99.90
4556;DHT22;2290;48.674;9.018;2024-01-30T12:36:05;12.30;99.90
4556;DHT22;2290;48.674;9.018;2024-01-30T12:38:32;12.40;99.90
4556;DHT22;2290;48.674;9.018;2024-01-30T12:40:58;12.40;99.90
4556;DHT22;2290;48.674;9.018;2024-01-30T12:43:24;12.50;99.90
4556;DHT22;2290;48.674;9.018;2024-01-30T12:45:54;12.50;99.90
4556;DHT22;2290;48.674;9.018;2024-01-30T12:48:22;12.50;99.90
4556;DHT22;2290;48.674;9.018;2024-01-30T12:50:48;12.50;99.90
4556;DHT22;2290;48.674;9.018;2024-01-30T12:53:15;12.50;99.90
4556;DHT22;2290;48.674;9.018;2024-01-30T12:55:41;12.60;99.90
4556;DHT22;2290;48.674;9.018;2024-01-30T12:58:06;12.70;99.90
4556;DHT22;2290;48.674;9.018;2024-01-30T13:00:32;13.00;99.90
4556;DHT22;2290;48.674;9.018;2024-01-30T13:02:59;13.20;99.90
4556;DHT22;2290;48.674;9.018;2024-01-30T13:05:25;13.50;99.90
4556;DHT22;2290;48.674;9.018;2024-01-30T13:07:51;13.70;99.90
4556;DHT22;2290;48.674;9.018;2024-01-30T13:10:17;13.90;99.90
4556;DHT22;2290;48.674;9.018;2024-01-30T13:12:43;14.10;99.90
4556;DHT22;2290;48.674;9.018;2024-01-30T13:15:08;14.30;99.90
4556;DHT22;2290;48.674;9.018;2024-01-30T13:17:34;14.50;99.90
4556;DHT22;2290;48.674;9.018;2024-01-30T13:19:59;14.40;99.60
4556;DHT22;2290;48.674;9.018;2024-01-30T13:22:25;14.30;99.70
4556;DHT22;2290;48.674;9.018;2024-01-30T13:24:52;14.20;99.60
4556;DHT22;2290;48.674;9.018;2024-01-30T13:27:18;14.10;99.60
4556;DHT22;2290;48.674;9.018;2024-01-30T13:29:43;14.10;99.90
4556;DHT22;2290;48.674;9.018;2024-01-30T13:32:09;14.10;99.90
4556;DHT22;2290;48.674;9.018;2024-01-30T13:34:34;14.10;99.70
4556;DHT22;2290;48.674;9.018;2024-01-30T13:37:00;14.10;99.80
4556;DHT22;2290;48.674;9.018;2024-01-30T13:39:25;14.10;99.50
4556;DHT22;2290;48.674;9.018;2024-01-30T13:41:51;14.20;99.60
4556;DHT22;2290;48.674;9.018;2024-01-30T13:44:17;14.30;99.50
4556;DHT22;2290;48.674;9.018;2024-01-30T13:46:43;14.20;99.60
4556;DHT22;2290;48.674;9.018;2024-01-30T13:49:09;14.10;99.70
4556;DHT22;2290;48.674;9.018;2024-01-30T13:51:34;14.00;99.90
4556;DHT22;2290;48.674;9.018;2024-01-30T13:54:06;14.00;99.90
4556;DHT22;2290;48.674;9.018;2024-01-30T13:56:31;14.00;99.90
4556;DHT22;2290;48.674;9.018;2024-01-30T13:58:57;13.90;99.90
4556;DHT22;2290;48.674;9.018;2024-01-30T14:01:23;13.90;99.90
4556;DHT22;2290;48.674;9.018;2024-01-30T14:03:51;13.80;99.90
4556;DHT22;2290;48.674;9.018;2024-01-30T14:06:18;13.90;99.90
4556;DHT22;2290;48.674;9.018;2024-01-30T14:08:45;13.80;99.90
4556;DHT22;2290;48.674;9.018;2024-01-30T14:11:11;13.80;99.90
4556;DHT22;2290;48.674;9.018;2024-01-30T14:13:39;13.90;99.90
4556;DHT22;2290;48.674;9.018;2024-01-30T14:16:06;13.90;99.90
4556;DHT22;2290;48.674;9.018;2024-01-30T14:18:31;13.90;99.90
4556;DHT22;2290;48.674;9.018;2024-01-30T14:20:57;13.90;99.90
4556;DHT22;2290;48.674;9.018;2024-01-30T14:23:23;14.00;99.90
4556;DHT22;2290;48.674;9.018;2024-01-30T14:25:50;14.10;99.90
4556;DHT22;2290;48.674;9.018;2024-01-30T14:28:17;14.20;99.90
4556;DHT22;2290;48.674;9.018;2024-01-30T14:30:45;14.30;99.90
4556;DHT22;2290;48.674;9.018;2024-01-30T14:33:14;14.10;99.90
4556;DHT22;2290;48.674;9.018;2024-01-30T14:35:48;14.30;99.90
4556;DHT22;2290;48.674;9.018;2024-01-30T14:38:15;14.30;99.90
4556;DHT22;2290;48.674;9.018;2024-01-30T14:40:43;14.20;99.90
4556;DHT22;2290;48.674;9.018;2024-01-30T14:43:08;14.00;99.90
4556;DHT22;2290;48.674;9.018;2024-01-30T14:45:34;13.80;99.90
4556;DHT22;2290;48.674;9.018;2024-01-30T14:47:59;13.50;99.90
4556;DHT22;2290;48.674;9.018;2024-01-30T14:50:32;13.40;99.90
4556;DHT22;2290;48.674;9.018;2024-01-30T14:53:02;13.10;99.90
4556;DHT22;2290;48.674;9.018;2024-01-30T14:55:33;13.00;99.90
4556;DHT22;2290;48.674;9.018;2024-01-30T14:58:03;12.80;99.90
4556;DHT22;2290;48.674;9.018;2024-01-30T15:00:32;12.70;99.90
4556;DHT22;2290;48.674;9.018;2024-01-30T15:02:58;12.70;99.90
4556;DHT22;2290;48.674;9.018;2024-01-30T15:05:24;12.50;99.90
4556;DHT22;2290;48.674;9.018;2024-01-30T15:07:50;12.40;99.90
4556;DHT22;2290;48.674;9.018;2024-01-30T15:10:16;12.40;99.90
4556;DHT22;2290;48.674;9.018;2024-01-30T15:12:43;12.30;99.90
4556;DHT22;2290;48.674;9.018;2024-01-30T15:15:10;12.20;99.90
4556;DHT22;2290;48.674;9.018;2024-01-30T15:17:36;12.10;99.90
4556;DHT22;2290;48.674;9.018;2024-01-30T15:20:03;12.10;99.90
4556;DHT22;2290;48.674;9.018;2024-01-30T15:22:29;12.00;99.90
4556;DHT22;2290;48.674;9.018;2024-01-30T15:24:55;11.90;99.90
4556;DHT22;2290;48.674;9.018;2024-01-30T15:27:20;11.90;99.90
4556;DHT22;2290;48.674;9.018;2024-01-30T15:29:46;11.80;99.90
4556;DHT22;2290;48.674;9.018;2024-01-30T15:32:12;11.80;99.90
4556;DHT22;2290;48.674;9.018;2024-01-30T15:34:37;11.80;99.90
4556;DHT22;2290;48.674;9.018;2024-01-30T15:37:03;11.70;99.90
4556;DHT22;2290;48.674;9.018;2024-01-30T15:39:29;11.60;99.90
4556;DHT22;2290;48.674;9.018;2024-01-30T15:41:55;11.60;99.90
4556;DHT22;2290;48.674;9.018;2024-01-30T15:44:20;11.50;99.90
4556;DHT22;2290;48.674;9.018;2024-01-30T15:46:46;11.50;99.90
4556;DHT22;2290;48.674;9.018;2024-01-30T15:49:13;11.40;99.90
4556;DHT22;2290;48.674;9.018;2024-01-30T15:51:41;11.40;99.90
4556;DHT22;2290;48.674;9.018;2024-01-30T15:54:08;11.30;99.90
4556;DHT22;2290;48.674;9.018;2024-01-30T15:56:57;11.20;99.90
4556;DHT22;2290;48.674;9.018;2024-01-30T15:59:50;11.10;99.90
4556;DHT22;2290;48.674;9.018;2024-01-30T16:02:31;11.00;99.90
4556;DHT22;2290;48.674;9.018;2024-01-30T16:05:24;11.00;99.90
4556;DHT22;2290;48.674;9.018;2024-01-30T16:08:26;10.90;99.90
4556;DHT22;2290;48.674;9.018;2024-01-30T16:10:59;10.80;99.90
4556;DHT22;2290;48.674;9.018;2024-01-30T16:13:25;10.70;99.90
4556;DHT22;2290;48.674;9.018;2024-01-30T16:15:50;10.60;99.90
4556;DHT22;2290;48.674;9.018;2024-01-30T16:18:24;10.50;99.90